sensor_id;sensor_type;location;lat;lon;timestamp;pressure;altitude;pressure_sealevel;temperature;humidity
58245;BME280;44550;43.864;25.986;2023-04-02T00:01:35;99836.72;;;9.71;100.00
58245;BME280;44550;43.864;25.986;2023-04-02T00:05:38;99837.53;;;9.76;100.00
58245;BME280;44550;43.864;25.986;2023-04-02T00:09:49;99844.50;;;9.80;100.00
58245;BME280;44550;43.864;25.986;2023-04-02T00:13:55;99844.50;;;9.82;100.00
58245;BME280;44550;43.864;25.986;2023-04-02T00:18:06;99836.69;;;9.80;100.00
58245;BME280;44550;43.864;25.986;2023-04-02T00:22:15;99833.19;;;9.81;100.00
58245;BME280;44550;43.864;25.986;2023-04-02T00:26:22;99834.03;;;9.85;100.00
58245;BME280;44550;43.864;25.986;2023-04-02T00:30:27;99834.91;;;9.87;100.00
58245;BME280;44550;43.864;25.986;2023-04-02T00:34:29;99839.28;;;9.82;100.00
58245;BME280;44550;43.864;25.986;2023-04-02T00:38:36;99843.63;;;9.84;100.00
58245;BME280;44550;43.864;25.986;2023-04-02T00:42:52;99840.09;;;9.88;100.00
58245;BME280;44550;43.864;25.986;2023-04-02T00:46:58;99840.06;;;9.98;100.00
58245;BME280;44550;43.864;25.986;2023-04-02T00:51:12;99851.41;;;9.89;100.00
58245;BME280;44550;43.864;25.986;2023-04-02T00:55:19;99847.03;;;9.96;100.00
58245;BME280;44550;43.864;25.986;2023-04-02T00:59:24;99850.50;;;9.96;100.00
58245;BME280;44550;43.864;25.986;2023-04-02T01:03:32;99841.78;;;10.02;100.00
58245;BME280;44550;43.864;25.986;2023-04-02T01:07:52;99835.66;;;10.07;100.00
58245;BME280;44550;43.864;25.986;2023-04-02T01:16:21;99839.13;;;10.08;100.00
58245;BME280;44550;43.864;25.986;2023-04-02T01:20:46;99834.78;;;10.10;100.00
58245;BME280;44550;43.864;25.986;2023-04-02T01:24:54;99839.91;;;10.24;100.00
58245;BME280;44550;43.864;25.986;2023-04-02T01:29:00;99851.25;;;10.26;100.00
58245;BME280;44550;43.864;25.986;2023-04-02T01:33:09;99848.66;;;10.15;100.00
58245;BME280;44550;43.864;25.986;2023-04-02T01:37:20;99838.25;;;10.12;100.00
58245;BME280;44550;43.864;25.986;2023-04-02T01:41:37;99842.56;;;10.18;100.00
58245;BME280;44550;43.864;25.986;2023-04-02T01:45:43;99831.28;;;10.11;100.00
58245;BME280;44550;43.864;25.986;2023-04-02T01:49:44;99827.81;;;10.07;100.00
58245;BME280;44550;43.864;25.986;2023-04-02T01:53:47;99840.06;;;10.01;100.00
58245;BME280;44550;43.864;25.986;2023-04-02T01:57:53;99847.00;;;10.02;100.00
58245;BME280;44550;43.864;25.986;2023-04-02T02:02:01;99854.00;;;9.95;100.00
58245;BME280;44550;43.864;25.986;2023-04-02T02:06:03;99861.78;;;10.04;100.00
58245;BME280;44550;43.864;25.986;2023-04-02T02:10:04;99861.84;;;9.94;100.00
58245;BME280;44550;43.864;25.986;2023-04-02T02:14:08;99864.44;;;9.98;100.00
58245;BME280;44550;43.864;25.986;2023-04-02T02:18:22;99860.94;;;9.99;100.00
58245;BME280;44550;43.864;25.986;2023-04-02T02:22:25;99860.94;;;10.04;100.00
58245;BME280;44550;43.864;25.986;2023-04-02T02:26:30;99856.59;;;9.98;100.00
58245;BME280;44550;43.864;25.986;2023-04-02T02:30:39;99860.94;;;9.96;100.00
58245;BME280;44550;43.864;25.986;2023-04-02T02:34:48;99861.00;;;9.90;100.00
58245;BME280;44550;43.864;25.986;2023-04-02T02:39:00;99858.44;;;9.81;100.00
58245;BME280;44550;43.864;25.986;2023-04-02T02:43:05;99868.00;;;9.79;100.00
58245;BME280;44550;43.864;25.986;2023-04-02T02:47:17;99869.69;;;9.94;100.00
58245;BME280;44550;43.864;25.986;2023-04-02T02:51:22;99874.09;;;9.76;100.00
58245;BME280;44550;43.864;25.986;2023-04-02T02:55:27;99877.59;;;9.75;100.00
58245;BME280;44550;43.864;25.986;2023-04-02T02:59:32;99882.78;;;9.80;100.00
58245;BME280;44550;43.864;25.986;2023-04-02T03:03:45;99881.09;;;9.74;100.00
58245;BME280;44550;43.864;25.986;2023-04-02T03:07:49;99890.66;;;9.77;100.00
58245;BME280;44550;43.864;25.986;2023-04-02T03:11:52;99891.50;;;9.76;100.00
58245;BME280;44550;43.864;25.986;2023-04-02T03:15:57;99892.38;;;9.78;100.00
58245;BME280;44550;43.864;25.986;2023-04-02T03:20:04;99910.59;;;9.92;100.00
58245;BME280;44550;43.864;25.986;2023-04-02T03:24:16;99894.06;;;9.94;100.00
58245;BME280;44550;43.864;25.986;2023-04-02T03:28:21;99900.94;;;10.10;100.00
58245;BME280;44550;43.864;25.986;2023-04-02T03:32:30;99901.78;;;10.16;100.00
58245;BME280;44550;43.864;25.986;2023-04-02T03:36:35;99900.03;;;10.16;100.00
58245;BME280;44550;43.864;25.986;2023-04-02T03:41:05;99910.53;;;10.08;100.00
58245;BME280;44550;43.864;25.986;2023-04-02T03:45:09;99911.38;;;10.12;100.00
58245;BME280;44550;43.864;25.986;2023-04-02T03:49:12;99912.25;;;10.06;100.00
58245;BME280;44550;43.864;25.986;2023-04-02T03:53:21;99926.22;;;10.07;100.00
58245;BME280;44550;43.864;25.986;2023-04-02T03:57:31;99922.75;;;9.99;100.00
58245;BME280;44550;43.864;25.986;2023-04-02T04:01:35;99939.28;;;10.02;100.00
58245;BME280;44550;43.864;25.986;2023-04-02T04:05:44;99934.06;;;10.04;100.00
58245;BME280;44550;43.864;25.986;2023-04-02T04:09:47;99941.03;;;10.03;100.00
58245;BME280;44550;43.864;25.986;2023-04-02T04:13:53;99931.44;;;10.05;100.00
58245;BME280;44550;43.864;25.986;2023-04-02T04:17:57;99946.22;;;10.06;100.00
58245;BME280;44550;43.864;25.986;2023-04-02T04:22:08;99951.47;;;10.08;100.00
58245;BME280;44550;43.864;25.986;2023-04-02T04:26:13;99945.34;;;10.10;100.00
58245;BME280;44550;43.864;25.986;2023-04-02T04:30:23;99960.13;;;10.15;100.00
58245;BME280;44550;43.864;25.986;2023-04-02T04:34:28;99950.59;;;10.01;100.00
58245;BME280;44550;43.864;25.986;2023-04-02T04:38:32;99970.63;;;10.04;100.00
58245;BME280;44550;43.864;25.986;2023-04-02T04:42:46;99966.31;;;9.94;100.00
58245;BME280;44550;43.864;25.986;2023-04-02T04:47:04;99968.09;;;9.84;100.00
58245;BME280;44550;43.864;25.986;2023-04-02T04:51:15;99982.00;;;9.72;100.00
58245;BME280;44550;43.864;25.986;2023-04-02T04:55:37;99970.72;;;9.75;100.00
58245;BME280;44550;43.864;25.986;2023-04-02T04:59:39;99987.25;;;9.72;100.00
58245;BME280;44550;43.864;25.986;2023-04-02T05:03:47;99990.72;;;9.77;100.00
58245;BME280;44550;43.864;25.986;2023-04-02T05:07:52;100008.09;;;9.87;100.00
58245;BME280;44550;43.864;25.986;2023-04-02T05:12:04;100016.81;;;9.88;100.00
58245;BME280;44550;43.864;25.986;2023-04-02T05:16:09;100017.63;;;9.96;100.00
58245;BME280;44550;43.864;25.986;2023-04-02T05:20:31;100029.84;;;9.94;100.00
58245;BME280;44550;43.864;25.986;2023-04-02T05:24:41;100035.94;;;9.98;100.00
58245;BME280;44550;43.864;25.986;2023-04-02T05:28:46;100037.69;;;10.03;100.00
58245;BME280;44550;43.864;25.986;2023-04-02T05:32:52;100032.41;;;10.06;100.00
58245;BME280;44550;43.864;25.986;2023-04-02T05:36:56;100045.50;;;10.00;100.00
58245;BME280;44550;43.864;25.986;2023-04-02T05:41:00;100050.69;;;10.06;100.00
58245;BME280;44550;43.864;25.986;2023-04-02T05:45:05;100053.31;;;10.17;100.00
58245;BME280;44550;43.864;25.986;2023-04-02T05:49:08;100055.91;;;10.22;100.00
58245;BME280;44550;43.864;25.986;2023-04-02T05:53:19;100070.69;;;10.24;100.00
58245;BME280;44550;43.864;25.986;2023-04-02T05:57:22;100076.78;;;10.25;100.00
58245;BME280;44550;43.864;25.986;2023-04-02T06:01:54;100075.94;;;10.29;100.00
58245;BME280;44550;43.864;25.986;2023-04-02T06:06:00;100082.88;;;10.39;100.00
58245;BME280;44550;43.864;25.986;2023-04-02T06:10:04;100085.50;;;10.36;100.00
58245;BME280;44550;43.864;25.986;2023-04-02T06:14:13;100082.00;;;10.39;100.00
58245;BME280;44550;43.864;25.986;2023-04-02T06:18:15;100091.53;;;10.55;100.00
58245;BME280;44550;43.864;25.986;2023-04-02T06:22:19;100095.88;;;10.64;100.00
58245;BME280;44550;43.864;25.986;2023-04-02T06:26:28;100100.25;;;10.52;100.00
58245;BME280;44550;43.864;25.986;2023-04-02T06:30:35;100105.50;;;10.49;100.00
58245;BME280;44550;43.864;25.986;2023-04-02T06:34:37;100112.44;;;10.61;100.00
58245;BME280;44550;43.864;25.986;2023-04-02T06:38:39;100120.25;;;10.69;100.00
58245;BME280;44550;43.864;25.986;2023-04-02T06:42:43;100114.13;;;10.76;100.00
58245;BME280;44550;43.864;25.986;2023-04-02T06:46:44;100118.50;;;10.77;100.00
58245;BME280;44550;43.864;25.986;2023-04-02T06:50:49;100127.16;;;10.93;100.00
58245;BME280;44550;43.864;25.986;2023-04-02T06:54:57;100128.00;;;10.95;100.00
58245;BME280;44550;43.864;25.986;2023-04-02T06:59:01;100128.84;;;11.01;100.00
58245;BME280;44550;43.864;25.986;2023-04-02T07:03:04;100134.06;;;11.01;100.00
58245;BME280;44550;43.864;25.986;2023-04-02T07:07:05;100136.53;;;11.27;100.00
58245;BME280;44550;43.864;25.986;2023-04-02T07:11:11;100139.00;;;11.52;100.00
58245;BME280;44550;43.864;25.986;2023-04-02T07:15:19;100143.31;;;11.64;100.00
58245;BME280;44550;43.864;25.986;2023-04-02T07:19:27;100144.09;;;11.72;100.00
58245;BME280;44550;43.864;25.986;2023-04-02T07:23:31;100153.69;;;11.76;100.00
58245;BME280;44550;43.864;25.986;2023-04-02T07:27:31;100154.53;;;11.83;100.00
58245;BME280;44550;43.864;25.986;2023-04-02T07:31:36;100157.91;;;12.00;100.00
58245;BME280;44550;43.864;25.986;2023-04-02T07:35:37;100159.50;;;12.16;100.00
58245;BME280;44550;43.864;25.986;2023-04-02T07:39:57;100167.28;;;12.24;100.00
58245;BME280;44550;43.864;25.986;2023-04-02T07:44:02;100171.41;;;12.50;99.24
58245;BME280;44550;43.864;25.986;2023-04-02T07:48:07;100169.69;;;12.47;99.25
58245;BME280;44550;43.864;25.986;2023-04-02T07:52:10;100175.78;;;12.51;98.77
58245;BME280;44550;43.864;25.986;2023-04-02T07:56:21;100173.22;;;12.46;97.67
58245;BME280;44550;43.864;25.986;2023-04-02T08:00:40;100177.81;;;12.19;96.69
58245;BME280;44550;43.864;25.986;2023-04-02T08:04:48;100182.06;;;12.31;98.18
58245;BME280;44550;43.864;25.986;2023-04-02T08:08:49;100179.44;;;12.36;96.82
58245;BME280;44550;43.864;25.986;2023-04-02T08:12:54;100178.78;;;12.08;97.49
58245;BME280;44550;43.864;25.986;2023-04-02T08:17:01;100180.41;;;12.22;97.58
58245;BME280;44550;43.864;25.986;2023-04-02T08:21:21;100183.78;;;12.37;98.25
58245;BME280;44550;43.864;25.986;2023-04-02T08:26:02;100178.22;;;12.67;97.23
58245;BME280;44550;43.864;25.986;2023-04-02T08:30:06;100183.38;;;12.78;95.27
58245;BME280;44550;43.864;25.986;2023-04-02T08:34:12;100193.78;;;12.81;93.66
58245;BME280;44550;43.864;25.986;2023-04-02T08:38:21;100195.59;;;12.78;94.82
58245;BME280;44550;43.864;25.986;2023-04-02T08:42:49;100193.75;;;12.84;94.93
58245;BME280;44550;43.864;25.986;2023-04-02T08:46:58;100201.50;;;12.97;94.85
58245;BME280;44550;43.864;25.986;2023-04-02T08:51:06;100192.06;;;12.80;94.43
58245;BME280;44550;43.864;25.986;2023-04-02T09:00:03;100200.41;;;13.16;92.58
58245;BME280;44550;43.864;25.986;2023-04-02T09:04:29;100202.88;;;13.30;92.92
58245;BME280;44550;43.864;25.986;2023-04-02T09:08:45;100204.19;;;13.65;92.57
58245;BME280;44550;43.864;25.986;2023-04-02T09:12:50;100198.03;;;13.64;89.96
58245;BME280;44550;43.864;25.986;2023-04-02T09:17:09;100205.13;;;13.57;88.85
58245;BME280;44550;43.864;25.986;2023-04-02T09:21:35;100204.97;;;13.70;89.20
58245;BME280;44550;43.864;25.986;2023-04-02T09:25:52;100201.84;;;14.00;86.95
58245;BME280;44550;43.864;25.986;2023-04-02T09:35:17;100223.66;;;14.07;85.98
58245;BME280;44550;43.864;25.986;2023-04-02T10:38:43;100244.75;;;14.60;84.52
58245;BME280;44550;43.864;25.986;2023-04-02T11:22:20;100229.53;;;16.38;77.57
58245;BME280;44550;43.864;25.986;2023-04-02T11:27:34;100218.44;;;16.60;77.21
58245;BME280;44550;43.864;25.986;2023-04-02T11:32:30;100218.28;;;17.30;74.56
58245;BME280;44550;43.864;25.986;2023-04-02T11:41:17;100208.56;;;18.43;68.21
58245;BME280;44550;43.864;25.986;2023-04-02T11:46:03;100208.19;;;18.53;67.08
58245;BME280;44550;43.864;25.986;2023-04-02T11:50:03;100203.16;;;18.72;65.17
58245;BME280;44550;43.864;25.986;2023-04-02T11:54:22;100198.66;;;18.23;68.28
58245;BME280;44550;43.864;25.986;2023-04-02T12:02:55;100191.38;;;18.29;62.90
58245;BME280;44550;43.864;25.986;2023-04-02T12:07:16;100191.94;;;18.13;62.79
58245;BME280;44550;43.864;25.986;2023-04-02T12:11:29;100193.41;;;18.48;62.08
58245;BME280;44550;43.864;25.986;2023-04-02T12:15:42;100197.69;;;18.25;60.38
58245;BME280;44550;43.864;25.986;2023-04-02T12:19:56;100192.63;;;17.91;61.56
58245;BME280;44550;43.864;25.986;2023-04-02T12:24:04;100177.56;;;18.21;60.83
58245;BME280;44550;43.864;25.986;2023-04-02T12:28:05;100186.50;;;18.17;61.84
58245;BME280;44550;43.864;25.986;2023-04-02T12:32:22;100176.25;;;18.33;60.65
58245;BME280;44550;43.864;25.986;2023-04-02T12:36:30;100179.47;;;18.43;60.32
58245;BME280;44550;43.864;25.986;2023-04-02T12:40:33;100178.53;;;18.17;60.54
58245;BME280;44550;43.864;25.986;2023-04-02T12:49:46;100180.31;;;18.43;60.09
58245;BME280;44550;43.864;25.986;2023-04-02T12:54:00;100175.66;;;19.00;55.60
58245;BME280;44550;43.864;25.986;2023-04-02T12:58:02;100175.00;;;19.18;55.03
58245;BME280;44550;43.864;25.986;2023-04-02T13:02:20;100178.41;;;19.22;54.04
58245;BME280;44550;43.864;25.986;2023-04-02T13:06:21;100172.47;;;19.61;52.22
58245;BME280;44550;43.864;25.986;2023-04-02T13:10:31;100174.59;;;19.97;50.80
58245;BME280;44550;43.864;25.986;2023-04-02T13:14:33;100168.97;;;20.04;49.98
58245;BME280;44550;43.864;25.986;2023-04-02T13:18:41;100171.38;;;19.21;52.11
58245;BME280;44550;43.864;25.986;2023-04-02T13:22:58;100171.25;;;19.24;51.71
58245;BME280;44550;43.864;25.986;2023-04-02T13:27:15;100171.66;;;19.13;53.07
58245;BME280;44550;43.864;25.986;2023-04-02T13:31:16;100171.91;;;19.53;52.38
58245;BME280;44550;43.864;25.986;2023-04-02T13:35:32;100166.31;;;19.37;51.07
58245;BME280;44550;43.864;25.986;2023-04-02T13:39:38;100165.00;;;19.94;50.98
58245;BME280;44550;43.864;25.986;2023-04-02T13:43:42;100165.28;;;20.29;46.71
58245;BME280;44550;43.864;25.986;2023-04-02T13:47:48;100158.88;;;20.34;47.47
58245;BME280;44550;43.864;25.986;2023-04-02T13:51:50;100159.56;;;19.75;47.55
58245;BME280;44550;43.864;25.986;2023-04-02T13:55:59;100155.09;;;19.54;49.41
58245;BME280;44550;43.864;25.986;2023-04-02T14:00:06;100146.09;;;19.80;46.77
58245;BME280;44550;43.864;25.986;2023-04-02T14:04:22;100127.13;;;20.31;45.52
58245;BME280;44550;43.864;25.986;2023-04-02T14:08:27;100150.59;;;20.00;46.71
58245;BME280;44550;43.864;25.986;2023-04-02T14:12:37;100138.28;;;20.19;45.84
58245;BME280;44550;43.864;25.986;2023-04-02T14:16:48;100142.25;;;20.09;46.10
58245;BME280;44550;43.864;25.986;2023-04-02T14:20:54;100139.06;;;20.21;45.38
58245;BME280;44550;43.864;25.986;2023-04-02T14:25:10;100143.31;;;20.05;46.05
58245;BME280;44550;43.864;25.986;2023-04-02T14:29:15;100127.75;;;19.95;45.65
58245;BME280;44550;43.864;25.986;2023-04-02T14:33:24;100135.06;;;19.68;47.36
58245;BME280;44550;43.864;25.986;2023-04-02T14:37:32;100129.31;;;19.79;46.59
58245;BME280;44550;43.864;25.986;2023-04-02T14:41:36;100135.09;;;19.89;46.39
58245;BME280;44550;43.864;25.986;2023-04-02T14:45:47;100131.84;;;19.82;47.00
58245;BME280;44550;43.864;25.986;2023-04-02T14:50:02;100135.25;;;19.64;48.09
58245;BME280;44550;43.864;25.986;2023-04-02T14:54:06;100138.00;;;19.61;47.58
58245;BME280;44550;43.864;25.986;2023-04-02T14:58:14;100134.16;;;19.90;47.88
58245;BME280;44550;43.864;25.986;2023-04-02T15:02:21;100138.88;;;19.83;47.01
58245;BME280;44550;43.864;25.986;2023-04-02T15:06:29;100136.94;;;19.43;47.83
58245;BME280;44550;43.864;25.986;2023-04-02T15:10:32;100148.34;;;19.45;48.38
58245;BME280;44550;43.864;25.986;2023-04-02T15:14:43;100145.16;;;19.59;48.45
58245;BME280;44550;43.864;25.986;2023-04-02T15:18:54;100152.28;;;19.57;48.99
58245;BME280;44550;43.864;25.986;2023-04-02T15:23:04;100159.50;;;19.53;49.44
58245;BME280;44550;43.864;25.986;2023-04-02T15:27:17;100165.44;;;19.38;49.91
58245;BME280;44550;43.864;25.986;2023-04-02T15:31:25;100162.59;;;19.42;49.98
58245;BME280;44550;43.864;25.986;2023-04-02T15:35:34;100173.78;;;19.27;49.59
58245;BME280;44550;43.864;25.986;2023-04-02T15:44:32;100175.00;;;19.18;49.69
58245;BME280;44550;43.864;25.986;2023-04-02T15:48:51;100180.00;;;19.02;49.78
58245;BME280;44550;43.864;25.986;2023-04-02T15:53:00;100187.50;;;19.15;49.16
58245;BME280;44550;43.864;25.986;2023-04-02T15:57:06;100194.56;;;18.91;49.89
58245;BME280;44550;43.864;25.986;2023-04-02T16:01:24;100188.47;;;19.12;49.75
58245;BME280;44550;43.864;25.986;2023-04-02T16:05:40;100189.56;;;19.07;49.86
58245;BME280;44550;43.864;25.986;2023-04-02T16:09:46;100196.81;;;19.01;50.47
58245;BME280;44550;43.864;25.986;2023-04-02T16:13:57;100197.59;;;18.80;51.59
58245;BME280;44550;43.864;25.986;2023-04-02T16:18:04;100208.50;;;18.71;52.59
58245;BME280;44550;43.864;25.986;2023-04-02T16:22:15;100210.84;;;18.53;53.51
58245;BME280;44550;43.864;25.986;2023-04-02T16:26:30;100216.78;;;18.60;54.04
58245;BME280;44550;43.864;25.986;2023-04-02T16:30:36;100222.25;;;18.55;54.51
58245;BME280;44550;43.864;25.986;2023-04-02T16:34:46;100215.75;;;18.39;55.31
58245;BME280;44550;43.864;25.986;2023-04-02T16:39:18;100217.69;;;18.34;55.77
58245;BME280;44550;43.864;25.986;2023-04-02T16:43:29;100226.75;;;18.27;55.94
58245;BME280;44550;43.864;25.986;2023-04-02T16:47:46;100235.09;;;18.15;56.24
58245;BME280;44550;43.864;25.986;2023-04-02T16:52:04;100244.19;;;18.06;56.50
58245;BME280;44550;43.864;25.986;2023-04-02T16:56:17;100251.50;;;17.98;56.72
58245;BME280;44550;43.864;25.986;2023-04-02T17:00:38;100252.56;;;17.92;56.64
58245;BME280;44550;43.864;25.986;2023-04-02T17:04:57;100266.16;;;17.80;56.87
58245;BME280;44550;43.864;25.986;2023-04-02T17:09:05;100263.06;;;17.64;57.55
58245;BME280;44550;43.864;25.986;2023-04-02T17:13:15;100266.03;;;17.55;58.12
58245;BME280;44550;43.864;25.986;2023-04-02T17:17:17;100267.16;;;17.45;58.06
58245;BME280;44550;43.864;25.986;2023-04-02T17:21:19;100277.03;;;17.40;58.81
58245;BME280;44550;43.864;25.986;2023-04-02T17:25:31;100275.59;;;17.28;59.29
58245;BME280;44550;43.864;25.986;2023-04-02T17:29:37;100276.06;;;17.11;59.50
58245;BME280;44550;43.864;25.986;2023-04-02T17:33:38;100269.81;;;17.13;59.72
58245;BME280;44550;43.864;25.986;2023-04-02T17:37:49;100262.84;;;17.11;60.14
58245;BME280;44550;43.864;25.986;2023-04-02T17:41:54;100275.56;;;16.97;60.57
58245;BME280;44550;43.864;25.986;2023-04-02T17:45:58;100275.09;;;16.82;61.05
58245;BME280;44550;43.864;25.986;2023-04-02T17:54:43;100275.59;;;16.61;61.80
58245;BME280;44550;43.864;25.986;2023-04-02T17:59:10;100274.03;;;16.52;62.38
58245;BME280;44550;43.864;25.986;2023-04-02T18:03:25;100286.28;;;16.55;62.20
58245;BME280;44550;43.864;25.986;2023-04-02T18:08:09;100297.06;;;16.83;61.17
58245;BME280;44550;43.864;25.986;2023-04-02T18:12:41;100305.72;;;16.88;61.84
58245;BME280;44550;43.864;25.986;2023-04-02T18:17:05;100312.38;;;17.03;62.23
58245;BME280;44550;43.864;25.986;2023-04-02T18:25:59;100323.13;;;16.95;62.52
58245;BME280;44550;43.864;25.986;2023-04-02T18:30:14;100341.41;;;16.31;65.12
58245;BME280;44550;43.864;25.986;2023-04-02T18:34:36;100332.94;;;16.17;65.92
58245;BME280;44550;43.864;25.986;2023-04-02T18:38:45;100335.06;;;16.01;66.72
58245;BME280;44550;43.864;25.986;2023-04-02T18:42:52;100346.09;;;15.78;66.33
58245;BME280;44550;43.864;25.986;2023-04-02T18:47:00;100353.44;;;15.61;67.84
58245;BME280;44550;43.864;25.986;2023-04-02T18:51:08;100357.44;;;15.35;69.14
58245;BME280;44550;43.864;25.986;2023-04-02T18:55:14;100353.03;;;14.32;73.52
58245;BME280;44550;43.864;25.986;2023-04-02T18:59:19;100359.88;;;13.79;77.14
58245;BME280;44550;43.864;25.986;2023-04-02T19:03:22;100362.44;;;13.85;76.48
58245;BME280;44550;43.864;25.986;2023-04-02T19:07:30;100363.22;;;13.92;76.45
58245;BME280;44550;43.864;25.986;2023-04-02T19:11:32;100363.19;;;13.93;76.75
58245;BME280;44550;43.864;25.986;2023-04-02T19:15:37;100360.09;;;13.62;77.62
58245;BME280;44550;43.864;25.986;2023-04-02T19:19:52;100359.66;;;13.17;79.31
58245;BME280;44550;43.864;25.986;2023-04-02T19:24:10;100359.69;;;13.14;79.35
58245;BME280;44550;43.864;25.986;2023-04-02T19:28:17;100371.03;;;13.16;79.42
58245;BME280;44550;43.864;25.986;2023-04-02T19:32:26;100368.47;;;13.10;80.38
58245;BME280;44550;43.864;25.986;2023-04-02T19:36:35;100364.16;;;13.03;81.34
58245;BME280;44550;43.864;25.986;2023-04-02T19:40:44;100372.97;;;12.97;81.96
58245;BME280;44550;43.864;25.986;2023-04-02T19:44:49;100382.59;;;12.97;81.68
58245;BME280;44550;43.864;25.986;2023-04-02T19:48:53;100384.34;;;12.94;82.29
58245;BME280;44550;43.864;25.986;2023-04-02T19:52:59;100379.34;;;12.65;84.20
58245;BME280;44550;43.864;25.986;2023-04-02T19:57:02;100382.94;;;12.52;85.43
58245;BME280;44550;43.864;25.986;2023-04-02T20:01:04;100385.69;;;12.34;86.67
58245;BME280;44550;43.864;25.986;2023-04-02T20:05:04;100383.91;;;12.34;87.00
58245;BME280;44550;43.864;25.986;2023-04-02T20:09:06;100387.34;;;12.44;86.67
58245;BME280;44550;43.864;25.986;2023-04-02T20:13:15;100389.97;;;12.49;86.99
58245;BME280;44550;43.864;25.986;2023-04-02T20:17:34;100386.50;;;12.42;87.80
58245;BME280;44550;43.864;25.986;2023-04-02T20:21:41;100389.06;;;12.48;88.09
58245;BME280;44550;43.864;25.986;2023-04-02T20:25:45;100387.25;;;12.61;87.75
58245;BME280;44550;43.864;25.986;2023-04-02T20:29:52;100383.69;;;12.68;87.38
58245;BME280;44550;43.864;25.986;2023-04-02T20:33:57;100376.78;;;12.58;88.30
58245;BME280;44550;43.864;25.986;2023-04-02T20:38:03;100383.78;;;12.57;88.42
58245;BME280;44550;43.864;25.986;2023-04-02T20:42:05;100382.09;;;12.52;88.38
58245;BME280;44550;43.864;25.986;2023-04-02T20:46:15;100385.59;;;12.49;88.35
58245;BME280;44550;43.864;25.986;2023-04-02T20:50:16;100393.31;;;12.67;87.20
58245;BME280;44550;43.864;25.986;2023-04-02T20:54:16;100391.50;;;12.74;85.88
58245;BME280;44550;43.864;25.986;2023-04-02T20:58:18;100390.66;;;12.74;84.28
58245;BME280;44550;43.864;25.986;2023-04-02T21:02:25;100401.22;;;12.63;83.74
58245;BME280;44550;43.864;25.986;2023-04-02T21:06:26;100401.19;;;12.64;82.23
58245;BME280;44550;43.864;25.986;2023-04-02T21:10:29;100389.88;;;12.58;79.57
58245;BME280;44550;43.864;25.986;2023-04-02T21:14:34;100397.72;;;12.64;79.05
58245;BME280;44550;43.864;25.986;2023-04-02T21:19:04;100392.34;;;12.81;78.14
58245;BME280;44550;43.864;25.986;2023-04-02T21:23:19;100403.47;;;13.07;77.46
58245;BME280;44550;43.864;25.986;2023-04-02T21:27:20;100406.03;;;13.18;74.87
58245;BME280;44550;43.864;25.986;2023-04-02T21:31:24;100402.63;;;13.04;73.42
58245;BME280;44550;43.864;25.986;2023-04-02T21:35:27;100401.69;;;13.14;72.93
58245;BME280;44550;43.864;25.986;2023-04-02T21:39:28;100396.44;;;13.15;72.43
58245;BME280;44550;43.864;25.986;2023-04-02T21:43:28;100391.31;;;13.00;72.34
58245;BME280;44550;43.864;25.986;2023-04-02T21:47:31;100402.63;;;13.08;72.11
58245;BME280;44550;43.864;25.986;2023-04-02T21:51:34;100408.66;;;13.16;71.82
58245;BME280;44550;43.864;25.986;2023-04-02T21:55:38;100408.72;;;13.10;71.44
58245;BME280;44550;43.864;25.986;2023-04-02T21:59:40;100410.47;;;13.10;71.14
58245;BME280;44550;43.864;25.986;2023-04-02T22:03:43;100407.03;;;13.05;71.19
58245;BME280;44550;43.864;25.986;2023-04-02T22:07:46;100412.31;;;13.02;71.53
58245;BME280;44550;43.864;25.986;2023-04-02T22:11:51;100410.56;;;12.99;71.44
58245;BME280;44550;43.864;25.986;2023-04-02T22:15:58;100412.28;;;13.03;71.28
58245;BME280;44550;43.864;25.986;2023-04-02T22:20:04;100409.75;;;12.92;71.35
58245;BME280;44550;43.864;25.986;2023-04-02T22:24:11;100415.94;;;12.82;71.58
58245;BME280;44550;43.864;25.986;2023-04-02T22:28:12;100418.63;;;12.73;72.09
58245;BME280;44550;43.864;25.986;2023-04-02T22:32:13;100426.50;;;12.73;72.29
58245;BME280;44550;43.864;25.986;2023-04-02T22:36:15;100424.78;;;12.70;71.93
58245;BME280;44550;43.864;25.986;2023-04-02T22:40:22;100419.56;;;12.64;72.44
58245;BME280;44550;43.864;25.986;2023-04-02T22:44:26;100419.56;;;12.61;72.67
58245;BME280;44550;43.864;25.986;2023-04-02T22:48:27;100422.28;;;12.55;72.94
58245;BME280;44550;43.864;25.986;2023-04-02T22:52:27;100438.03;;;12.48;73.26
58245;BME280;44550;43.864;25.986;2023-04-02T22:56:34;100431.94;;;12.49;73.38
58245;BME280;44550;43.864;25.986;2023-04-02T23:00:47;100430.25;;;12.35;74.00
58245;BME280;44550;43.864;25.986;2023-04-02T23:04:52;100427.66;;;12.28;74.46
58245;BME280;44550;43.864;25.986;2023-04-02T23:08:55;100434.63;;;12.30;73.80
58245;BME280;44550;43.864;25.986;2023-04-02T23:13:09;100442.47;;;12.36;73.70
58245;BME280;44550;43.864;25.986;2023-04-02T23:17:16;100441.63;;;12.33;73.77
58245;BME280;44550;43.864;25.986;2023-04-02T23:21:25;100437.25;;;12.30;73.73
58245;BME280;44550;43.864;25.986;2023-04-02T23:25:30;100432.09;;;12.15;74.27
58245;BME280;44550;43.864;25.986;2023-04-02T23:29:46;100426.84;;;12.13;74.53
58245;BME280;44550;43.864;25.986;2023-04-02T23:33:47;100416.38;;;12.12;74.49
58245;BME280;44550;43.864;25.986;2023-04-02T23:37:49;100418.16;;;12.07;74.72
58245;BME280;44550;43.864;25.986;2023-04-02T23:41:54;100411.19;;;11.98;75.04
58245;BME280;44550;43.864;25.986;2023-04-02T23:46:06;100422.59;;;11.92;75.31